Agulhas — ZSAF — position and weather

sailwx.info

Track history (hours):
 
Tides and Currents Weather Stations Pressure Air Temp Water Temp Dewpoint Dewpoint Depression Visibility Wind Speed Wind Dir Waves Ship Positions

Oceanographic research ship Agulhas (South Africa)

Detailed information on ship capabilities available from University of Delaware's Ocean Information Center.

Last reported at 2018-Oct-26 13:56 UTC. Time now 2018-Nov-13 06:55 UTC.
Position S 29°59' E 031°06'.
Warning: this ship's position is 17 days out of date.

Type: Passenger vessel. MMSI: 601048000.

Date/timePositionNaut miles runAvg speedWind from/ knotsBaromVisibWave heightAir tempDewpointWater temp
2018-Oct-26 13:56S 29°59' E 031°06'10 8.2
2018-Oct-26 12:41S 29°52' E 031°15'2 8.0
2018-Oct-26 12:25S 29°51' E 031°16'12 8.1
2018-Oct-26 10:55S 29°41' E 031°24'4 9.0
2018-Oct-26 10:29S 29°37' E 031°26'4 8.8
2018-Oct-26 10:03S 29°34' E 031°28'1 9.1
2018-Oct-26 09:59S 29°33' E 031°28'  
2018-Oct-19 11:40S 34°46' E 018°26'2 8.1
2018-Oct-19 11:23S 34°44' E 018°23'3 4.2
2018-Oct-19 10:33S 34°43' E 018°20'25 8.0
2018-Oct-19 07:26S 34°28' E 017°55'6 7.7
2018-Oct-19 06:42S 34°22' E 017°54'2 7.5
2018-Oct-19 06:23S 34°20' E 017°53'6 7.4
2018-Oct-19 05:34S 34°14' E 017°52'1 7.2
2018-Oct-19 05:29S 34°13' E 017°52'3 7.3
2018-Oct-19 05:03S 34°10' E 017°51'0 7.5
2018-Oct-19 05:00S 34°10' E 017°51'4 7.5
2018-Oct-19 04:29S 34°06' E 017°50'3 7.6
2018-Oct-19 04:03S 34°03' E 017°49'0 7.6
2018-Oct-19 04:00S 34°03' E 017°49'5 7.5
2018-Oct-19 03:22S 33°58' E 017°48'4 7.6
2018-Oct-19 02:54S 33°55' E 017°47'  
Track history (hours):
 
Tides and Currents Weather Stations Pressure Air Temp Water Temp Dewpoint Dewpoint Depression Visibility Wind Speed Wind Dir Waves Ship Positions

Oceanographic research ship Agulhas (South Africa)

Detailed information on ship capabilities available from University of Delaware's Ocean Information Center.

Last reported at 2018-Oct-26 13:56 UTC. Time now 2018-Nov-13 06:55 UTC.
Position S 29°59' E 031°06'.
Warning: this ship's position is 17 days out of date.

Type: Passenger vessel. MMSI: 601048000.

Date/timePositionNaut miles runAvg speedWind from/ knotsBaromVisibWave heightAir tempDewpointWater temp
2018-Oct-26 13:56S 29°59' E 031°06'10 8.2
2018-Oct-26 12:41S 29°52' E 031°15'2 8.0
2018-Oct-26 12:25S 29°51' E 031°16'12 8.1
2018-Oct-26 10:55S 29°41' E 031°24'4 9.0
2018-Oct-26 10:29S 29°37' E 031°26'4 8.8
2018-Oct-26 10:03S 29°34' E 031°28'1 9.1
2018-Oct-26 09:59S 29°33' E 031°28'  
2018-Oct-19 11:40S 34°46' E 018°26'2 8.1
2018-Oct-19 11:23S 34°44' E 018°23'3 4.2
2018-Oct-19 10:33S 34°43' E 018°20'25 8.0
2018-Oct-19 07:26S 34°28' E 017°55'6 7.7
2018-Oct-19 06:42S 34°22' E 017°54'2 7.5
2018-Oct-19 06:23S 34°20' E 017°53'6 7.4
2018-Oct-19 05:34S 34°14' E 017°52'1 7.2
2018-Oct-19 05:29S 34°13' E 017°52'3 7.3
2018-Oct-19 05:03S 34°10' E 017°51'0 7.5
2018-Oct-19 05:00S 34°10' E 017°51'4 7.5
2018-Oct-19 04:29S 34°06' E 017°50'3 7.6
2018-Oct-19 04:03S 34°03' E 017°49'0 7.6
2018-Oct-19 04:00S 34°03' E 017°49'5 7.5
2018-Oct-19 03:22S 33°58' E 017°48'4 7.6
2018-Oct-19 02:54S 33°55' E 017°47'  

Dump ship's entire track history